Time;durP1;ratioP1;P1;durP2;ratioP2;P2;SDS_P1;SDS_P2;PMS_P1;PMS_P2;Temp;Humidity;BMP_temperature;BMP_pressure;BME280_temperature;BME280_humidity;BME280_pressure;Samples;Min_cycle;Max_cycle;Signal;HPM_P1;HPM_P2
2023/01/21 00:01:16;;;;;;;12.57;8.88;;;3.20;99.90;;;;;;5044511;28;20220;-82
2023/01/21 00:03:46;;;;;;;10.77;9.07;;;3.10;99.90;;;;;;4984570;28;20227;-79
2023/01/21 00:06:14;;;;;;;11.88;8.90;;;3.10;99.90;;;;;;4985033;28;20224;-82
2023/01/21 00:08:44;;;;;;;13.98;9.13;;;3.10;99.90;;;;;;4975472;28;20236;-81
2023/01/21 00:11:13;;;;;;;15.07;8.95;;;3.10;99.90;;;;;;4956793;28;20319;-81
2023/01/21 00:13:47;;;;;;;14.02;8.38;;;3.10;99.90;;;;;;4986925;28;20641;-82
2023/01/21 00:16:17;;;;;;;17.50;8.45;;;3.10;99.90;;;;;;4981591;28;20216;-79
2023/01/21 00:18:46;;;;;;;19.55;9.25;;;3.10;99.90;;;;;;4938569;28;20225;-79
2023/01/21 00:21:13;;;;;;;15.88;9.93;;;3.10;99.90;;;;;;4995842;28;20611;-79
2023/01/21 00:23:41;;;;;;;15.38;8.75;;;3.10;99.90;;;;;;4957690;28;20310;-79
2023/01/21 00:26:10;;;;;;;15.05;8.13;;;3.10;99.90;;;;;;4962932;28;20274;-80
2023/01/21 00:28:38;;;;;;;15.57;7.97;;;3.10;99.90;;;;;;4996145;28;20224;-82
2023/01/21 00:31:10;;;;;;;11.40;7.60;;;3.10;99.90;;;;;;5020992;28;20224;-79
2023/01/21 00:33:41;;;;;;;16.05;8.75;;;3.20;99.90;;;;;;4960036;28;20271;-81
2023/01/21 00:36:11;;;;;;;12.60;6.90;;;3.20;99.90;;;;;;4968549;28;20236;-79
2023/01/21 00:38:39;;;;;;;13.80;8.45;;;3.20;99.90;;;;;;4947907;28;20228;-79
2023/01/21 00:41:08;;;;;;;14.10;9.43;;;3.10;99.90;;;;;;5021668;28;20228;-79
2023/01/21 00:43:36;;;;;;;15.68;8.60;;;3.10;99.90;;;;;;5019537;28;20307;-81
2023/01/21 00:46:30;;;;;;;11.07;7.40;;;3.10;99.90;;;;;;5013291;28;20535;-79
2023/01/21 00:49:00;;;;;;;9.18;7.07;;;3.10;99.90;;;;;;5022872;28;20308;-78
2023/01/21 00:51:27;;;;;;;9.15;7.18;;;3.10;99.90;;;;;;5002056;28;20303;-81
2023/01/21 00:53:54;;;;;;;8.55;6.90;;;3.10;99.90;;;;;;5032233;28;20231;-81
2023/01/21 00:56:22;;;;;;;14.80;8.50;;;3.10;99.90;;;;;;5003178;28;20228;-78
2023/01/21 00:58:50;;;;;;;12.68;8.43;;;3.10;99.90;;;;;;4970733;28;20264;-82
2023/01/21 01:01:21;;;;;;;12.98;8.07;;;3.10;99.90;;;;;;5004849;28;20261;-79
2023/01/21 01:03:50;;;;;;;10.13;6.50;;;3.10;99.90;;;;;;5019144;28;20232;-79
2023/01/21 01:06:22;;;;;;;12.40;6.97;;;3.00;99.90;;;;;;4962407;28;20228;-79
2023/01/21 01:08:51;;;;;;;14.32;7.70;;;3.00;99.90;;;;;;5027986;28;20227;-82
2023/01/21 01:11:20;;;;;;;11.38;7.55;;;3.00;99.90;;;;;;5005178;28;20626;-82
2023/01/21 01:13:47;;;;;;;12.27;8.13;;;3.10;99.90;;;;;;4982438;28;20221;-79
2023/01/21 01:16:16;;;;;;;9.25;7.15;;;3.10;99.90;;;;;;5001540;28;20234;-79
2023/01/21 01:18:46;;;;;;;10.25;7.03;;;3.10;99.90;;;;;;5014301;28;20228;-81
2023/01/21 01:21:16;;;;;;;9.52;6.93;;;3.10;99.90;;;;;;4980323;28;20278;-83
2023/01/21 01:23:45;;;;;;;9.95;7.55;;;3.10;99.90;;;;;;4962892;28;20887;-80
2023/01/21 01:26:14;;;;;;;12.20;7.10;;;3.10;99.90;;;;;;4954576;28;20227;-78
2023/01/21 01:28:42;;;;;;;12.85;7.88;;;3.10;99.90;;;;;;4961393;28;20231;-78
2023/01/21 01:31:13;;;;;;;10.13;6.40;;;3.10;99.90;;;;;;4956317;28;20303;-79
2023/01/21 01:33:44;;;;;;;9.60;6.25;;;3.10;99.90;;;;;;5003142;28;20224;-80
2023/01/21 01:36:14;;;;;;;9.40;5.85;;;3.10;99.90;;;;;;4968437;28;20613;-82
2023/01/21 01:38:41;;;;;;;9.98;7.20;;;3.20;99.90;;;;;;4983384;28;20220;-82
2023/01/21 01:41:16;;;;;;;8.77;6.25;;;3.10;99.90;;;;;;4974790;28;20237;-82
2023/01/21 01:43:53;;;;;;;8.27;5.75;;;3.10;99.90;;;;;;4983140;28;20289;-83
2023/01/21 01:46:23;;;;;;;9.85;6.70;;;3.10;99.90;;;;;;5009458;28;20705;-82
2023/01/21 01:49:07;;;;;;;10.27;6.82;;;3.00;99.90;;;;;;4998010;28;20232;-81
2023/01/21 01:51:44;;;;;;;9.27;6.85;;;3.10;99.90;;;;;;4963025;28;20295;-79
2023/01/21 01:54:15;;;;;;;6.97;5.95;;;3.00;99.90;;;;;;4964985;28;20392;-81
2023/01/21 01:56:54;;;;;;;11.20;7.20;;;3.10;99.90;;;;;;4992392;28;20232;-83
2023/01/21 01:59:25;;;;;;;10.80;7.53;;;3.20;99.90;;;;;;4987484;28;20232;-81
2023/01/21 02:01:55;;;;;;;11.73;7.55;;;3.20;99.90;;;;;;5002728;28;20224;-81
2023/01/21 02:04:26;;;;;;;17.17;8.35;;;3.20;99.90;;;;;;4983920;28;20298;-82
2023/01/21 02:06:58;;;;;;;17.17;9.38;;;3.20;99.90;;;;;;5009500;28;20675;-81
2023/01/21 02:09:28;;;;;;;15.95;8.77;;;3.20;99.90;;;;;;5033551;28;20282;-81
2023/01/21 02:11:57;;;;;;;18.73;10.25;;;3.20;99.90;;;;;;5032205;28;20226;-81
2023/01/21 02:14:24;;;;;;;15.32;10.05;;;3.20;99.90;;;;;;5032034;28;20654;-82
2023/01/21 02:17:10;;;;;;;18.15;11.40;;;3.20;99.90;;;;;;5032117;28;20229;-79
2023/01/21 02:20:17;;;;;;;19.10;10.90;;;3.20;99.90;;;;;;5031818;28;20236;-79
2023/01/21 02:22:54;;;;;;;16.17;10.38;;;3.30;99.90;;;;;;5032141;28;20307;-82
2023/01/21 02:26:03;;;;;;;16.08;10.35;;;3.30;99.90;;;;;;5024196;28;20221;-82
2023/01/21 02:29:04;;;;;;;21.00;11.68;;;3.30;99.90;;;;;;4985966;28;20304;-79
2023/01/21 02:32:10;;;;;;;17.10;10.13;;;3.30;99.90;;;;;;5019738;28;20252;-79
2023/01/21 02:34:45;;;;;;;19.77;11.00;;;3.30;99.90;;;;;;4986190;28;20220;-79
2023/01/21 02:37:17;;;;;;;22.05;12.10;;;3.30;99.90;;;;;;5030764;28;20253;-79
2023/01/21 02:40:06;;;;;;;17.88;11.50;;;3.30;99.90;;;;;;5029224;28;20249;-79
2023/01/21 02:42:41;;;;;;;17.08;10.23;;;3.40;99.90;;;;;;5031764;28;20225;-82
2023/01/21 02:45:15;;;;;;;19.95;11.55;;;3.40;99.90;;;;;;5033150;28;20241;-82
2023/01/21 02:47:52;;;;;;;19.35;12.13;;;3.30;99.90;;;;;;5030725;28;20251;-82
2023/01/21 02:50:24;;;;;;;18.42;11.07;;;3.40;99.90;;;;;;5003531;28;20519;-79
2023/01/21 02:52:57;;;;;;;17.65;9.30;;;3.40;99.90;;;;;;4969151;28;20644;-82
2023/01/21 02:55:32;;;;;;;19.90;10.10;;;3.40;99.90;;;;;;5035332;28;20235;-79
2023/01/21 02:58:02;;;;;;;20.25;11.80;;;3.50;99.90;;;;;;5036239;28;20247;-82
2023/01/21 03:00:36;;;;;;;23.08;12.13;;;3.50;99.90;;;;;;5037340;28;20256;-82
2023/01/21 03:03:45;;;;;;;16.92;11.05;;;3.50;99.90;;;;;;5035169;28;20327;-82
2023/01/21 03:06:41;;;;;;;16.40;10.15;;;3.50;99.90;;;;;;5025856;28;20228;-82
2023/01/21 03:09:21;;;;;;;13.70;9.73;;;3.50;99.90;;;;;;4962017;28;20309;-79
2023/01/21 03:12:01;;;;;;;18.73;9.97;;;3.50;99.90;;;;;;4947768;28;20236;-79
2023/01/21 03:17:27;;;;;;;14.88;10.07;;;3.60;99.90;;;;;;4936303;28;20235;-79
2023/01/21 03:20:01;;;;;;;15.90;10.80;;;3.60;99.90;;;;;;5034147;28;20263;-79
2023/01/21 03:22:36;;;;;;;14.13;10.00;;;3.60;99.90;;;;;;5035018;28;20298;-79
2023/01/21 03:25:10;;;;;;;15.13;9.20;;;3.70;99.90;;;;;;4950549;28;20252;-82
2023/01/21 03:27:42;;;;;;;10.00;8.23;;;3.70;99.90;;;;;;5031562;28;20221;-84
2023/01/21 03:30:13;;;;;;;18.33;9.73;;;3.70;99.90;;;;;;5035390;28;20229;-81
2023/01/21 03:32:55;;;;;;;18.58;11.23;;;3.70;99.90;;;;;;5035301;28;20233;-82
2023/01/21 03:35:27;;;;;;;18.08;10.32;;;3.70;99.90;;;;;;5032645;28;20236;-81
2023/01/21 03:38:01;;;;;;;15.48;8.38;;;3.70;99.90;;;;;;5033449;28;20228;-82
2023/01/21 03:40:33;;;;;;;13.23;9.25;;;3.70;99.90;;;;;;5035290;28;20336;-81
2023/01/21 03:43:04;;;;;;;10.80;7.63;;;3.70;99.90;;;;;;5036649;28;20236;-81
2023/01/21 03:45:42;;;;;;;11.57;8.13;;;3.70;99.90;;;;;;5034828;28;20534;-80
2023/01/21 03:48:17;;;;;;;11.18;8.13;;;3.70;99.90;;;;;;4989858;28;20545;-79
2023/01/21 03:50:53;;;;;;;11.77;8.63;;;3.70;99.90;;;;;;5019519;28;20307;-81
2023/01/21 03:53:22;;;;;;;14.50;9.70;;;3.70;99.90;;;;;;4934337;28;20232;-79
2023/01/21 03:55:51;;;;;;;9.38;7.40;;;3.80;99.90;;;;;;5003240;28;20225;-78
2023/01/21 03:58:18;;;;;;;11.70;8.10;;;3.70;99.90;;;;;;4996289;28;20241;-81
2023/01/21 04:00:48;;;;;;;10.02;7.25;;;3.80;99.90;;;;;;4938124;28;20237;-82
2023/01/21 04:03:15;;;;;;;11.18;7.78;;;3.80;99.90;;;;;;4982824;28;20233;-82
2023/01/21 04:05:42;;;;;;;11.23;8.20;;;3.80;99.90;;;;;;4939623;28;20292;-78
2023/01/21 04:08:10;;;;;;;9.90;7.10;;;3.80;99.90;;;;;;4974032;28;20316;-82
2023/01/21 04:10:39;;;;;;;11.98;8.65;;;3.80;99.90;;;;;;4998295;28;20325;-79
2023/01/21 04:13:10;;;;;;;12.07;8.05;;;3.80;99.90;;;;;;4995856;28;20231;-81
2023/01/21 04:15:37;;;;;;;10.57;6.20;;;3.80;99.90;;;;;;4957392;28;20233;-78
2023/01/21 04:18:04;;;;;;;8.80;6.47;;;3.80;99.90;;;;;;4937650;28;20233;-81
2023/01/21 04:20:31;;;;;;;8.57;7.13;;;3.90;99.90;;;;;;4966596;28;20225;-79
2023/01/21 04:22:59;;;;;;;8.23;6.40;;;3.90;99.90;;;;;;4966875;28;20240;-81
2023/01/21 04:25:26;;;;;;;11.60;7.70;;;3.90;99.90;;;;;;4987351;28;20253;-79
2023/01/21 04:27:54;;;;;;;10.32;6.80;;;3.90;99.90;;;;;;4999619;28;20229;-79
2023/01/21 04:30:22;;;;;;;8.60;7.15;;;3.90;99.90;;;;;;4986022;28;20233;-82
2023/01/21 04:32:49;;;;;;;9.20;6.68;;;3.90;99.90;;;;;;4966037;28;20222;-82
2023/01/21 04:35:16;;;;;;;7.45;6.55;;;3.90;99.90;;;;;;4980704;28;20311;-79
2023/01/21 04:37:43;;;;;;;8.95;8.05;;;3.90;99.90;;;;;;4966664;28;20405;-79
2023/01/21 04:40:11;;;;;;;11.25;7.90;;;3.90;99.90;;;;;;4979010;28;20628;-79
2023/01/21 04:42:42;;;;;;;10.60;7.35;;;3.90;99.90;;;;;;5001536;28;20694;-79
2023/01/21 04:45:11;;;;;;;8.15;6.85;;;3.90;99.90;;;;;;4991751;28;20221;-80
2023/01/21 04:47:49;;;;;;;15.07;7.15;;;3.90;99.90;;;;;;4966081;28;20682;-80
2023/01/21 04:50:17;;;;;;;8.15;6.43;;;3.80;99.90;;;;;;4970799;28;20267;-79
2023/01/21 04:52:44;;;;;;;6.82;5.25;;;3.80;99.90;;;;;;5003223;28;20221;-79
2023/01/21 04:55:11;;;;;;;10.85;6.50;;;3.80;99.90;;;;;;4968983;28;20229;-79
2023/01/21 04:57:38;;;;;;;8.23;6.30;;;3.80;99.90;;;;;;5000707;28;20279;-79
2023/01/21 05:00:07;;;;;;;9.05;7.45;;;3.90;99.90;;;;;;4997186;28;20237;-79
2023/01/21 05:02:36;;;;;;;7.88;6.35;;;3.80;99.90;;;;;;4966333;28;20236;-82
2023/01/21 05:05:07;;;;;;;9.88;6.82;;;3.90;99.90;;;;;;4976255;28;20292;-79
2023/01/21 05:07:34;;;;;;;12.38;7.10;;;3.80;99.90;;;;;;4984701;28;20227;-79
2023/01/21 05:10:01;;;;;;;9.80;6.55;;;3.80;99.90;;;;;;5000525;28;20312;-79
2023/01/21 05:12:28;;;;;;;10.65;6.68;;;3.80;99.90;;;;;;4967520;28;20240;-78
2023/01/21 05:14:57;;;;;;;8.82;6.40;;;3.80;99.90;;;;;;4965251;28;20237;-79
2023/01/21 05:17:24;;;;;;;9.23;6.88;;;3.80;99.90;;;;;;4997212;28;20225;-81
2023/01/21 05:19:52;;;;;;;9.48;6.35;;;3.80;99.90;;;;;;4952680;28;20686;-81
2023/01/21 05:22:21;;;;;;;8.52;6.25;;;3.90;99.90;;;;;;4997717;28;20225;-82
2023/01/21 05:24:48;;;;;;;10.32;7.40;;;3.80;99.90;;;;;;4975250;28;20231;-79
2023/01/21 05:27:16;;;;;;;7.25;5.90;;;3.80;99.90;;;;;;4994687;28;20807;-78
2023/01/21 05:29:43;;;;;;;11.30;7.28;;;3.80;99.90;;;;;;4965547;28;20249;-79
2023/01/21 05:32:11;;;;;;;7.18;6.38;;;3.80;99.90;;;;;;4971780;28;20229;-81
2023/01/21 05:34:38;;;;;;;8.23;6.10;;;3.80;99.90;;;;;;5005286;28;20236;-81
2023/01/21 05:37:06;;;;;;;9.35;6.88;;;3.80;99.90;;;;;;4985564;28;20560;-79
2023/01/21 05:39:34;;;;;;;10.73;7.03;;;3.80;99.90;;;;;;4999205;28;20267;-79
2023/01/21 05:42:01;;;;;;;7.70;5.95;;;3.90;99.90;;;;;;4995452;28;20546;-79
2023/01/21 05:44:28;;;;;;;10.40;7.72;;;3.80;99.90;;;;;;4964046;28;20622;-78
2023/01/21 05:46:55;;;;;;;10.77;7.00;;;3.80;99.90;;;;;;4971288;28;20290;-81
2023/01/21 05:49:24;;;;;;;8.90;6.70;;;3.80;99.90;;;;;;5001164;28;20282;-78
2023/01/21 05:51:54;;;;;;;8.60;6.60;;;3.80;99.90;;;;;;4998305;28;20225;-79
2023/01/21 05:54:22;;;;;;;10.15;7.20;;;3.80;99.90;;;;;;4960382;28;20221;-81
2023/01/21 05:56:49;;;;;;;7.65;6.00;;;3.80;99.90;;;;;;4973208;28;20251;-78
2023/01/21 05:59:19;;;;;;;7.53;6.78;;;3.70;99.90;;;;;;4936314;28;20676;-79
2023/01/21 06:01:46;;;;;;;15.07;7.03;;;3.70;99.90;;;;;;4936003;28;20236;-80
2023/01/21 06:04:17;;;;;;;8.30;6.03;;;3.70;99.90;;;;;;4934921;28;20590;-79
2023/01/21 06:06:44;;;;;;;8.20;6.63;;;3.70;99.90;;;;;;4934298;28;20263;-78
2023/01/21 06:09:11;;;;;;;7.70;6.18;;;3.70;99.90;;;;;;4936554;28;20236;-81
2023/01/21 06:11:40;;;;;;;9.73;7.75;;;3.70;99.90;;;;;;4936393;28;20233;-79
2023/01/21 06:14:08;;;;;;;10.68;6.40;;;3.70;99.90;;;;;;5021716;28;20233;-79
2023/01/21 06:16:35;;;;;;;9.00;6.00;;;3.70;99.90;;;;;;5037121;28;20228;-79
2023/01/21 06:19:02;;;;;;;8.35;6.90;;;3.70;99.90;;;;;;5039264;28;20304;-79
2023/01/21 06:21:32;;;;;;;9.45;8.05;;;3.80;99.90;;;;;;5039977;28;20245;-79
2023/01/21 06:23:59;;;;;;;11.27;8.00;;;3.70;99.90;;;;;;5040714;28;20294;-82
2023/01/21 06:26:26;;;;;;;9.85;6.72;;;3.70;99.90;;;;;;5044365;28;20232;-79
2023/01/21 06:28:55;;;;;;;8.90;7.22;;;3.70;99.90;;;;;;5040346;28;20221;-80
2023/01/21 06:31:23;;;;;;;12.57;8.27;;;3.70;99.90;;;;;;5042245;28;20229;-82
2023/01/21 06:33:50;;;;;;;12.35;9.52;;;3.80;99.90;;;;;;5042498;28;20240;-79
2023/01/21 06:36:17;;;;;;;10.27;8.10;;;3.80;99.90;;;;;;5041642;28;20225;-78
2023/01/21 06:38:44;;;;;;;15.75;9.85;;;3.80;99.90;;;;;;5043953;28;20228;-79
2023/01/21 06:41:12;;;;;;;12.45;10.63;;;3.80;99.90;;;;;;5038304;28;20237;-78
2023/01/21 06:43:39;;;;;;;11.20;8.57;;;3.80;99.90;;;;;;5052248;28;20267;-80
2023/01/21 06:46:11;;;;;;;10.35;8.95;;;3.90;99.90;;;;;;5052357;28;20296;-79
2023/01/21 06:58:04;;;;;;;15.02;10.10;;;3.90;99.90;;;;;;5048221;28;20365;-78
2023/01/21 07:10:03;;;;;;;16.83;11.52;;;3.90;99.90;;;;;;4975675;28;20237;-79
2023/01/21 07:12:32;;;;;;;17.90;10.48;;;4.00;99.90;;;;;;4946115;28;20653;-79
2023/01/21 07:24:29;;;;;;;16.77;12.35;;;4.00;99.90;;;;;;5019365;28;20226;-79
2023/01/21 07:27:05;;;;;;;20.02;13.18;;;4.00;99.90;;;;;;5016386;28;20229;-79
2023/01/21 07:29:35;;;;;;;21.02;12.70;;;4.00;99.90;;;;;;5029418;28;20229;-78
2023/01/21 07:32:21;;;;;;;19.10;15.02;;;4.00;99.90;;;;;;5025832;28;20221;-79
2023/01/21 07:35:16;;;;;;;;;;;;;;;;;;;;;
2023/01/21 07:37:57;;;;;;;24.63;14.57;;;4.00;99.90;;;;;;5035594;28;20232;-79
2023/01/21 07:40:40;;;;;;;17.30;11.77;;;4.00;99.90;;;;;;5026883;28;20637;-79
2023/01/21 07:46:25;;;;;;;20.20;11.98;;;3.90;99.90;;;;;;5004508;28;20221;-79
2023/01/21 07:52:00;;;;;;;16.02;13.25;;;3.90;99.90;;;;;;4947137;29;20228;-80
2023/01/21 07:54:40;;;;;;;18.08;12.88;;;3.90;99.90;;;;;;4922107;29;20303;-79
2023/01/21 07:57:45;;;;;;;18.13;13.07;;;3.80;99.90;;;;;;4936545;28;20573;-79
2023/01/21 08:03:41;;;;;;;17.10;12.18;;;3.80;99.90;;;;;;4965558;28;20219;-79
2023/01/21 08:06:55;;;;;;;;;;;;;;;;;;;;;
2023/01/21 08:09:27;;;;;;;17.15;13.25;;;3.90;99.90;;;;;;5002251;28;20233;-79
2023/01/21 08:12:37;;;;;;;15.65;12.90;;;3.90;99.90;;;;;;5017040;28;20363;-79
2023/01/21 08:15:15;;;;;;;15.40;12.27;;;3.90;99.90;;;;;;5002362;28;20230;-79
2023/01/21 08:18:13;;;;;;;15.30;11.60;;;4.00;99.90;;;;;;4997491;28;20222;-79
2023/01/21 08:20:44;;;;;;;15.52;11.80;;;4.00;99.90;;;;;;5015344;28;20222;-78
2023/01/21 08:23:29;;;;;;;14.70;11.15;;;4.00;99.90;;;;;;5012303;28;20264;-78
2023/01/21 08:26:17;;;;;;;14.90;10.95;;;4.10;99.90;;;;;;5011457;28;20526;-78
2023/01/21 08:29:20;;;;;;;14.70;11.02;;;4.10;99.90;;;;;;5001273;28;20292;-79
2023/01/21 08:36:07;;;;;;;;;;;;;;;;;;;;;
2023/01/21 08:42:27;;;;;;;16.33;10.57;;;4.20;99.90;;;;;;5002516;28;20236;-79
2023/01/21 08:45:09;;;;;;;;;;;;;;;;;;;;;
2023/01/21 08:47:40;;;;;;;14.32;10.65;;;4.20;99.90;;;;;;5018032;28;20305;-79
2023/01/21 08:53:31;;;;;;;14.98;12.00;;;4.30;99.90;;;;;;5010227;28;20217;-79
2023/01/21 08:56:32;;;;;;;13.23;10.63;;;4.30;99.90;;;;;;5021780;28;20263;-79
2023/01/21 08:59:26;;;;;;;;;;;;;;;;;;;;;
2023/01/21 09:05:05;;;;;;;18.45;11.80;;;4.50;99.90;;;;;;5021288;28;20686;-79
2023/01/21 09:07:32;;;;;;;20.30;12.65;;;4.50;99.90;;;;;;5022224;28;20226;-79
2023/01/21 09:13:45;;;;;;;16.25;11.52;;;4.40;99.90;;;;;;5031655;28;20236;-79
2023/01/21 09:16:50;;;;;;;15.88;11.32;;;4.50;99.90;;;;;;5033353;28;20267;-79
2023/01/21 09:19:21;;;;;;;14.48;11.50;;;4.50;99.90;;;;;;4961925;28;20242;-79
2023/01/21 09:22:08;;;;;;;13.85;10.65;;;4.50;99.90;;;;;;4960933;28;20596;-79
2023/01/21 09:24:35;;;;;;;12.55;10.18;;;4.50;99.90;;;;;;5001134;28;20228;-80
2023/01/21 09:32:55;;;;;;;14.95;10.90;;;4.60;99.90;;;;;;5010707;28;20299;-79
2023/01/21 09:36:10;;;;;;;17.23;12.05;;;4.60;99.90;;;;;;5037554;28;20228;-79
2023/01/21 09:38:47;;;;;;;14.27;11.27;;;4.60;99.90;;;;;;5022969;28;20331;-79
2023/01/21 09:41:43;;;;;;;17.63;12.20;;;4.60;99.90;;;;;;5002829;28;20380;-79
2023/01/21 10:01:28;;;;;;;16.20;11.75;;;4.80;99.90;;;;;;5021778;28;20515;-79
2023/01/21 10:03:58;;;;;;;19.30;11.60;;;4.80;99.90;;;;;;5036477;28;20231;-82
2023/01/21 10:06:30;;;;;;;19.75;12.77;;;4.80;99.90;;;;;;5037794;28;20312;-82
2023/01/21 10:09:14;;;;;;;17.33;12.65;;;4.80;99.90;;;;;;5028271;28;20230;-81
2023/01/21 10:12:13;;;;;;;14.98;10.05;;;4.80;99.90;;;;;;5036707;28;20610;-78
2023/01/21 10:15:18;;;;;;;15.27;12.50;;;4.80;99.90;;;;;;5037060;28;20309;-81
2023/01/21 10:17:54;;;;;;;15.90;11.35;;;4.90;99.90;;;;;;5035894;28;20679;-81
2023/01/21 10:21:02;;;;;;;15.93;12.48;;;4.90;99.90;;;;;;5036536;28;20641;-81
2023/01/21 10:23:37;;;;;;;14.98;11.45;;;4.90;99.90;;;;;;5017647;28;20240;-78
2023/01/21 10:26:19;;;;;;;16.75;10.45;;;4.90;99.90;;;;;;5035014;28;20217;-81
2023/01/21 10:28:52;;;;;;;15.32;11.05;;;5.00;99.90;;;;;;5039317;28;20221;-81
2023/01/21 10:31:29;;;;;;;16.42;10.57;;;5.00;99.90;;;;;;5033575;28;20221;-81
2023/01/21 10:33:57;;;;;;;16.33;10.50;;;5.10;99.90;;;;;;5037256;28;20229;-79
2023/01/21 10:36:46;;;;;;;13.38;10.20;;;5.10;99.90;;;;;;5035028;28;20299;-78
2023/01/21 10:39:23;;;;;;;16.15;11.07;;;5.00;99.90;;;;;;5034091;28;20256;-79
2023/01/21 10:42:19;;;;;;;14.15;9.57;;;5.00;99.90;;;;;;5034160;28;20313;-81
2023/01/21 10:44:53;;;;;;;15.13;10.32;;;5.10;99.90;;;;;;5009656;28;20575;-80
2023/01/21 10:47:29;;;;;;;12.27;10.38;;;5.10;99.90;;;;;;5034889;28;20822;-78
2023/01/21 10:50:10;;;;;;;14.05;10.20;;;5.10;99.90;;;;;;5033201;28;20253;-78
2023/01/21 10:52:45;;;;;;;17.80;12.18;;;5.10;99.90;;;;;;5019832;28;20263;-78
2023/01/21 10:55:27;;;;;;;14.32;10.25;;;5.20;99.90;;;;;;5033409;28;20279;-78
2023/01/21 10:58:11;;;;;;;13.43;10.02;;;5.30;99.90;;;;;;5034377;28;20663;-78
2023/01/21 11:00:43;;;;;;;12.65;10.50;;;5.30;99.90;;;;;;5038344;28;20648;-81
2023/01/21 11:03:34;;;;;;;13.68;10.63;;;5.30;99.90;;;;;;5035628;28;20233;-81
2023/01/21 11:06:05;;;;;;;15.65;11.40;;;5.30;99.90;;;;;;5038312;28;20605;-81
2023/01/21 11:08:32;;;;;;;14.57;11.32;;;5.30;99.90;;;;;;5042368;28;20279;-80
2023/01/21 11:11:00;;;;;;;12.90;9.63;;;5.40;99.90;;;;;;5043405;28;20245;-80
2023/01/21 11:13:42;;;;;;;14.05;10.13;;;5.40;99.90;;;;;;5027199;28;20233;-81
2023/01/21 11:16:10;;;;;;;11.98;9.38;;;5.40;99.90;;;;;;5019548;28;20301;-78
2023/01/21 11:18:43;;;;;;;13.73;9.20;;;5.40;99.90;;;;;;5024247;28;20256;-81
2023/01/21 11:21:21;;;;;;;13.75;9.73;;;5.40;99.90;;;;;;5034894;28;20659;-81
2023/01/21 11:23:54;;;;;;;15.80;11.05;;;5.50;99.90;;;;;;5036956;28;20240;-79
2023/01/21 11:26:31;;;;;;;12.50;9.98;;;5.40;99.90;;;;;;5043084;28;20233;-80
2023/01/21 11:29:15;;;;;;;11.32;9.30;;;5.50;99.90;;;;;;5034525;28;20260;-81
2023/01/21 11:31:45;;;;;;;13.07;8.70;;;5.40;99.90;;;;;;5040817;28;20225;-78
2023/01/21 11:34:16;;;;;;;12.00;9.93;;;5.50;99.90;;;;;;5038250;28;20233;-78
2023/01/21 11:37:05;;;;;;;16.55;10.55;;;5.50;99.90;;;;;;5040976;28;20249;-79
2023/01/21 11:39:35;;;;;;;12.13;9.57;;;5.50;99.90;;;;;;5038391;28;20245;-81
2023/01/21 11:42:14;;;;;;;15.43;9.98;;;5.50;99.90;;;;;;5038408;28;20245;-79
2023/01/21 11:44:57;;;;;;;11.75;8.75;;;5.60;99.90;;;;;;5039454;28;20229;-82
2023/01/21 11:47:50;;;;;;;13.45;9.93;;;5.60;99.90;;;;;;5036274;28;20249;-79
2023/01/21 11:50:36;;;;;;;11.73;9.73;;;5.60;99.90;;;;;;5036771;28;20342;-79
2023/01/21 11:53:20;;;;;;;10.88;8.70;;;5.60;99.90;;;;;;5036343;28;20265;-79
2023/01/21 11:56:02;;;;;;;12.15;9.40;;;5.70;99.90;;;;;;5031818;28;20647;-81
2023/01/21 11:58:32;;;;;;;11.77;8.60;;;5.70;99.90;;;;;;5030132;28;20221;-79
2023/01/21 12:01:06;;;;;;;14.52;9.95;;;5.70;99.90;;;;;;5036080;28;20236;-79
2023/01/21 12:03:41;;;;;;;11.30;8.55;;;5.80;99.90;;;;;;5026229;28;20290;-82
2023/01/21 12:06:19;;;;;;;10.90;8.80;;;5.80;99.90;;;;;;5035309;28;20532;-78
2023/01/21 12:08:51;;;;;;;14.07;9.23;;;5.80;99.90;;;;;;5036340;28;20715;-81
2023/01/21 12:11:27;;;;;;;12.70;9.27;;;5.80;99.90;;;;;;5035191;28;20305;-82
2023/01/21 12:14:05;;;;;;;10.55;7.68;;;5.90;99.90;;;;;;5028586;28;20225;-82
2023/01/21 12:16:42;;;;;;;10.23;7.78;;;5.90;99.90;;;;;;5025454;28;20236;-77
2023/01/21 12:19:41;;;;;;;9.70;7.88;;;5.90;99.90;;;;;;5024526;28;20239;-78
2023/01/21 12:22:23;;;;;;;8.30;7.43;;;5.90;99.90;;;;;;5026678;28;20319;-81
2023/01/21 12:25:21;;;;;;;10.20;8.30;;;6.00;99.90;;;;;;5039388;28;20217;-79
2023/01/21 12:28:07;;;;;;;11.65;8.32;;;6.00;99.90;;;;;;5034335;28;20240;-81
2023/01/21 12:30:45;;;;;;;10.88;7.63;;;6.00;99.90;;;;;;5033345;28;20283;-78
2023/01/21 12:33:19;;;;;;;10.57;8.38;;;6.00;99.90;;;;;;5024489;28;20299;-81
2023/01/21 12:35:58;;;;;;;9.75;7.82;;;6.00;99.90;;;;;;5022297;28;20229;-81
2023/01/21 12:38:35;;;;;;;9.35;8.13;;;6.00;99.90;;;;;;5022783;28;20603;-79
2023/01/21 12:41:11;;;;;;;8.85;7.30;;;6.10;99.90;;;;;;5023642;28;20538;-81
2023/01/21 12:43:45;;;;;;;8.45;6.50;;;6.20;99.90;;;;;;5034198;28;20225;-80
2023/01/21 12:46:17;;;;;;;11.80;7.75;;;6.20;99.90;;;;;;5034354;28;20245;-78
2023/01/21 12:51:51;;;;;;;8.07;7.28;;;6.20;99.90;;;;;;5033224;28;20236;-78
2023/01/21 12:54:23;;;;;;;7.90;6.35;;;6.10;99.90;;;;;;5024099;28;20679;-78
2023/01/21 12:56:57;;;;;;;8.13;5.93;;;6.20;99.90;;;;;;5033512;28;20703;-82
2023/01/21 12:59:30;;;;;;;9.80;5.65;;;6.20;99.90;;;;;;5034391;28;20225;-82
2023/01/21 13:02:05;;;;;;;8.57;5.78;;;6.20;99.90;;;;;;5033247;28;20290;-82
2023/01/21 13:04:45;;;;;;;7.20;5.72;;;6.20;99.90;;;;;;5035570;28;20572;-79
2023/01/21 13:07:25;;;;;;;6.60;5.90;;;6.20;99.90;;;;;;5036010;28;20597;-82
2023/01/21 13:09:59;;;;;;;6.90;5.20;;;6.30;99.90;;;;;;5022317;28;20225;-80
2023/01/21 13:12:34;;;;;;;5.68;5.18;;;6.30;99.90;;;;;;5025918;28;20231;-82
2023/01/21 13:15:06;;;;;;;8.07;6.20;;;6.30;99.90;;;;;;5032593;28;20615;-79
2023/01/21 13:17:36;;;;;;;6.40;5.03;;;6.30;99.90;;;;;;5041458;28;20245;-82
2023/01/21 13:20:19;;;;;;;6.15;5.15;;;6.30;99.90;;;;;;5044765;28;20229;-79
2023/01/21 13:23:01;;;;;;;7.03;5.60;;;6.40;99.90;;;;;;5046316;28;20277;-81
2023/01/21 13:25:40;;;;;;;7.30;5.53;;;6.30;99.90;;;;;;5049356;28;20279;-81
2023/01/21 13:28:29;;;;;;;7.28;5.45;;;6.40;99.90;;;;;;5038244;28;20596;-78
2023/01/21 13:31:02;;;;;;;6.30;5.68;;;6.40;99.90;;;;;;5049717;28;20225;-80
2023/01/21 13:33:40;;;;;;;6.35;5.72;;;6.40;99.90;;;;;;5046818;28;20228;-78
2023/01/21 13:36:31;;;;;;;7.22;5.70;;;6.40;99.90;;;;;;5044791;28;20225;-79
2023/01/21 13:39:04;;;;;;;8.18;6.40;;;6.40;99.90;;;;;;5028914;28;20225;-82
2023/01/21 13:41:58;;;;;;;6.85;5.25;;;6.40;99.90;;;;;;5043529;28;20722;-81
2023/01/21 13:45:05;;;;;;;7.28;6.00;;;6.50;99.90;;;;;;5045019;28;20251;-78
2023/01/21 13:47:45;;;;;;;9.52;4.30;;;6.50;99.90;;;;;;4992816;28;20230;-79
2023/01/21 13:50:24;;;;;;;6.43;4.50;;;6.50;99.90;;;;;;5021557;28;20232;-81
2023/01/21 13:53:20;;;;;;;6.43;5.50;;;6.50;99.90;;;;;;5035502;28;20217;-80
2023/01/21 13:55:58;;;;;;;7.38;5.32;;;6.50;99.90;;;;;;5037791;28;20225;-79
2023/01/21 13:58:35;;;;;;;8.13;4.53;;;6.50;99.90;;;;;;5035648;28;20212;-78
2023/01/21 14:01:11;;;;;;;8.23;4.93;;;6.50;99.90;;;;;;5033558;28;20251;-79
2023/01/21 14:04:09;;;;;;;;;;;;;;;;;;;;;
2023/01/21 14:06:44;;;;;;;7.35;4.97;;;6.50;99.90;;;;;;5035217;28;20572;-81
2023/01/21 14:09:18;;;;;;;5.63;4.63;;;6.50;99.90;;;;;;5032443;28;20247;-80
2023/01/21 14:11:49;;;;;;;5.18;4.20;;;6.50;99.90;;;;;;5032829;28;20748;-81
2023/01/21 14:14:42;;;;;;;4.55;3.85;;;6.60;99.90;;;;;;5024815;28;20244;-81
2023/01/21 14:17:37;;;;;;;6.47;5.43;;;6.60;99.90;;;;;;5033496;28;20316;-81
2023/01/21 14:20:43;;;;;;;17.65;11.68;;;6.50;99.90;;;;;;5031194;28;20268;-81
2023/01/21 14:23:26;;;;;;;7.97;4.93;;;6.50;99.90;;;;;;5033544;28;20286;-80
2023/01/21 14:26:11;;;;;;;6.95;5.13;;;6.50;99.90;;;;;;5023082;28;20264;-83
2023/01/21 14:28:44;;;;;;;8.27;4.80;;;6.40;99.90;;;;;;5013576;28;20236;-77
2023/01/21 14:31:22;;;;;;;8.52;5.07;;;6.40;99.90;;;;;;5014907;28;20692;-78
2023/01/21 14:33:57;;;;;;;3.97;3.58;;;6.40;99.90;;;;;;5013450;28;20422;-81
2023/01/21 14:36:38;;;;;;;4.85;2.90;;;6.30;99.90;;;;;;5028887;28;20229;-79
2023/01/21 14:39:28;;;;;;;4.22;3.85;;;6.30;99.90;;;;;;5032953;28;20632;-79
2023/01/21 14:42:09;;;;;;;4.75;3.58;;;6.30;99.90;;;;;;5032604;28;20313;-82
2023/01/21 14:44:42;;;;;;;5.22;3.95;;;6.30;99.90;;;;;;5034206;28;20229;-82
2023/01/21 14:47:15;;;;;;;6.38;3.35;;;6.30;99.90;;;;;;5036282;28;20233;-81
2023/01/21 14:49:44;;;;;;;3.53;3.25;;;6.30;99.90;;;;;;5037169;28;20240;-82
2023/01/21 14:52:16;;;;;;;3.15;2.95;;;6.20;99.90;;;;;;5037103;28;20304;-82
2023/01/21 14:55:28;;;;;;;3.80;3.20;;;6.20;99.90;;;;;;5026225;28;20369;-82
2023/01/21 14:57:59;;;;;;;2.33;1.83;;;6.20;99.90;;;;;;4989315;28;20218;-79
2023/01/21 15:00:32;;;;;;;4.07;3.78;;;6.20;99.90;;;;;;5038143;28;20225;-79
2023/01/21 15:03:14;;;;;;;5.15;3.97;;;6.20;99.90;;;;;;5036694;28;20592;-79
2023/01/21 15:05:48;;;;;;;7.78;3.30;;;6.20;99.90;;;;;;5037972;28;20656;-81